Argyle, Minnesota
Current Conditions -  °F | °C
As of 7:15 AM on Friday 28 Nov 2014 (Local Time) from KGAF Reporting Station
Light Snow Light Snow  
Wind Chill: -2°   Ceiling: 1000
Heat Index: 10°   Visibility: 3mi
Dew Point:   Wind: 8mph
Humidity: 85%   Direction: 110°ESE
Pressure: 30"   Gusts: NA
Location:  48.33°N, 96.82°W
Report Text: KGAF 281315Z AUTO 11007KT 3SM -SN OVC010 M12/M14 A3000 RMK AO2
Loading
Personal Weather Stations






























Interactive Weather Map New forecast layout! Learn more

10-Day Weather Forecast

Advertisements
Track Severe Weather on mobile